sensor_id;sensor_type;location;lat;lon;timestamp;P1;durP1;ratioP1;P2;durP2;ratioP2
78430;SDS011;67727;50.236;22.452;2023-03-23T00:01:30;20.00;;;11.70;;
78430;SDS011;67727;50.236;22.452;2023-03-23T00:04:03;22.00;;;11.60;;
78430;SDS011;67727;50.236;22.452;2023-03-23T00:06:30;23.80;;;11.60;;
78430;SDS011;67727;50.236;22.452;2023-03-23T00:09:01;20.20;;;10.90;;
78430;SDS011;67727;50.236;22.452;2023-03-23T00:11:30;18.80;;;11.00;;
78430;SDS011;67727;50.236;22.452;2023-03-23T00:13:59;15.10;;;9.10;;
78430;SDS011;67727;50.236;22.452;2023-03-23T00:16:31;15.10;;;8.60;;
78430;SDS011;67727;50.236;22.452;2023-03-23T00:18:59;14.10;;;9.10;;
78430;SDS011;67727;50.236;22.452;2023-03-23T00:21:30;16.50;;;8.80;;
78430;SDS011;67727;50.236;22.452;2023-03-23T00:24:03;15.90;;;9.30;;
78430;SDS011;67727;50.236;22.452;2023-03-23T00:26:30;15.90;;;8.80;;
78430;SDS011;67727;50.236;22.452;2023-03-23T00:29:00;12.80;;;8.90;;
78430;SDS011;67727;50.236;22.452;2023-03-23T00:31:28;17.50;;;9.50;;
78430;SDS011;67727;50.236;22.452;2023-03-23T00:33:59;13.20;;;8.70;;
78430;SDS011;67727;50.236;22.452;2023-03-23T00:36:27;13.00;;;8.20;;
78430;SDS011;67727;50.236;22.452;2023-03-23T00:38:55;15.30;;;9.00;;
78430;SDS011;67727;50.236;22.452;2023-03-23T00:41:27;10.60;;;7.20;;
78430;SDS011;67727;50.236;22.452;2023-03-23T00:43:57;12.80;;;7.90;;
78430;SDS011;67727;50.236;22.452;2023-03-23T00:46:27;14.20;;;7.90;;
78430;SDS011;67727;50.236;22.452;2023-03-23T00:48:54;15.50;;;7.90;;
78430;SDS011;67727;50.236;22.452;2023-03-23T00:51:23;11.20;;;7.30;;
78430;SDS011;67727;50.236;22.452;2023-03-23T00:53:50;12.20;;;6.70;;
78430;SDS011;67727;50.236;22.452;2023-03-23T00:56:17;13.70;;;8.00;;
78430;SDS011;67727;50.236;22.452;2023-03-23T00:58:44;14.30;;;8.50;;
78430;SDS011;67727;50.236;22.452;2023-03-23T01:01:11;13.60;;;7.50;;
78430;SDS011;67727;50.236;22.452;2023-03-23T01:03:38;13.60;;;8.70;;
78430;SDS011;67727;50.236;22.452;2023-03-23T01:06:06;11.40;;;7.80;;
78430;SDS011;67727;50.236;22.452;2023-03-23T01:08:34;14.90;;;7.60;;
78430;SDS011;67727;50.236;22.452;2023-03-23T01:11:06;12.80;;;7.80;;
78430;SDS011;67727;50.236;22.452;2023-03-23T01:13:33;11.30;;;7.60;;
78430;SDS011;67727;50.236;22.452;2023-03-23T01:16:00;12.00;;;7.90;;
78430;SDS011;67727;50.236;22.452;2023-03-23T01:20:55;11.10;;;7.10;;
78430;SDS011;67727;50.236;22.452;2023-03-23T01:23:21;15.20;;;8.00;;
78430;SDS011;67727;50.236;22.452;2023-03-23T01:25:49;12.10;;;7.50;;
78430;SDS011;67727;50.236;22.452;2023-03-23T01:28:16;13.60;;;8.10;;
78430;SDS011;67727;50.236;22.452;2023-03-23T01:30:43;11.20;;;7.80;;
78430;SDS011;67727;50.236;22.452;2023-03-23T01:33:11;12.90;;;7.10;;
78430;SDS011;67727;50.236;22.452;2023-03-23T01:35:41;11.30;;;6.80;;
78430;SDS011;67727;50.236;22.452;2023-03-23T01:38:10;12.20;;;7.70;;
78430;SDS011;67727;50.236;22.452;2023-03-23T01:40:37;10.20;;;6.40;;
78430;SDS011;67727;50.236;22.452;2023-03-23T01:43:10;10.10;;;7.70;;
78430;SDS011;67727;50.236;22.452;2023-03-23T01:45:41;9.50;;;6.70;;
78430;SDS011;67727;50.236;22.452;2023-03-23T01:50:55;12.90;;;7.80;;
78430;SDS011;67727;50.236;22.452;2023-03-23T01:53:25;11.60;;;7.20;;
78430;SDS011;67727;50.236;22.452;2023-03-23T01:55:55;9.70;;;6.70;;
78430;SDS011;67727;50.236;22.452;2023-03-23T01:58:26;9.80;;;6.40;;
78430;SDS011;67727;50.236;22.452;2023-03-23T02:00:57;12.10;;;7.50;;
78430;SDS011;67727;50.236;22.452;2023-03-23T02:03:30;10.60;;;7.30;;
78430;SDS011;67727;50.236;22.452;2023-03-23T02:05:58;11.10;;;7.10;;
78430;SDS011;67727;50.236;22.452;2023-03-23T02:08:28;12.60;;;8.00;;
78430;SDS011;67727;50.236;22.452;2023-03-23T02:10:58;12.80;;;7.30;;
78430;SDS011;67727;50.236;22.452;2023-03-23T02:13:26;10.90;;;6.80;;
78430;SDS011;67727;50.236;22.452;2023-03-23T02:16:09;10.00;;;6.70;;
78430;SDS011;67727;50.236;22.452;2023-03-23T02:18:52;9.80;;;6.70;;
78430;SDS011;67727;50.236;22.452;2023-03-23T02:27:05;10.70;;;6.10;;
78430;SDS011;67727;50.236;22.452;2023-03-23T02:29:45;9.40;;;6.00;;
78430;SDS011;67727;50.236;22.452;2023-03-23T02:35:19;10.00;;;6.40;;
78430;SDS011;67727;50.236;22.452;2023-03-23T02:37:51;12.00;;;7.00;;
78430;SDS011;67727;50.236;22.452;2023-03-23T02:40:33;10.00;;;6.30;;
78430;SDS011;67727;50.236;22.452;2023-03-23T02:43:10;9.50;;;6.80;;
78430;SDS011;67727;50.236;22.452;2023-03-23T02:45:41;12.00;;;7.50;;
78430;SDS011;67727;50.236;22.452;2023-03-23T02:48:11;14.30;;;7.30;;
78430;SDS011;67727;50.236;22.452;2023-03-23T02:50:42;11.20;;;6.30;;
78430;SDS011;67727;50.236;22.452;2023-03-23T02:53:12;9.90;;;6.00;;
78430;SDS011;67727;50.236;22.452;2023-03-23T02:55:42;9.10;;;6.40;;
78430;SDS011;67727;50.236;22.452;2023-03-23T02:58:10;10.20;;;6.00;;
78430;SDS011;67727;50.236;22.452;2023-03-23T03:00:38;10.70;;;5.80;;
78430;SDS011;67727;50.236;22.452;2023-03-23T03:03:06;8.20;;;5.70;;
78430;SDS011;67727;50.236;22.452;2023-03-23T03:05:58;7.70;;;5.90;;
78430;SDS011;67727;50.236;22.452;2023-03-23T03:11:34;8.00;;;5.50;;
78430;SDS011;67727;50.236;22.452;2023-03-23T03:17:03;7.90;;;5.60;;
78430;SDS011;67727;50.236;22.452;2023-03-23T03:19:40;8.40;;;5.40;;
78430;SDS011;67727;50.236;22.452;2023-03-23T03:22:12;8.40;;;5.40;;
78430;SDS011;67727;50.236;22.452;2023-03-23T03:24:40;6.80;;;4.60;;
78430;SDS011;67727;50.236;22.452;2023-03-23T03:27:10;8.70;;;5.30;;
78430;SDS011;67727;50.236;22.452;2023-03-23T03:29:44;7.70;;;5.40;;
78430;SDS011;67727;50.236;22.452;2023-03-23T03:32:14;10.40;;;5.10;;
78430;SDS011;67727;50.236;22.452;2023-03-23T03:34:45;11.30;;;7.70;;
78430;SDS011;67727;50.236;22.452;2023-03-23T03:37:13;11.20;;;7.90;;
78430;SDS011;67727;50.236;22.452;2023-03-23T03:39:42;10.10;;;7.20;;
78430;SDS011;67727;50.236;22.452;2023-03-23T03:42:09;12.50;;;7.10;;
78430;SDS011;67727;50.236;22.452;2023-03-23T03:44:38;11.30;;;6.40;;
78430;SDS011;67727;50.236;22.452;2023-03-23T03:47:04;7.10;;;5.80;;
78430;SDS011;67727;50.236;22.452;2023-03-23T03:49:32;8.00;;;5.90;;
78430;SDS011;67727;50.236;22.452;2023-03-23T03:51:58;8.60;;;5.80;;
78430;SDS011;67727;50.236;22.452;2023-03-23T03:54:25;9.90;;;6.10;;
78430;SDS011;67727;50.236;22.452;2023-03-23T03:56:52;10.10;;;5.90;;
78430;SDS011;67727;50.236;22.452;2023-03-23T03:59:24;8.60;;;6.00;;
78430;SDS011;67727;50.236;22.452;2023-03-23T04:01:54;11.30;;;6.10;;
78430;SDS011;67727;50.236;22.452;2023-03-23T04:04:21;13.50;;;6.70;;
78430;SDS011;67727;50.236;22.452;2023-03-23T04:06:48;8.20;;;6.30;;
78430;SDS011;67727;50.236;22.452;2023-03-23T04:09:15;14.30;;;7.60;;
78430;SDS011;67727;50.236;22.452;2023-03-23T04:11:42;9.50;;;6.40;;
78430;SDS011;67727;50.236;22.452;2023-03-23T04:14:09;8.70;;;6.40;;
78430;SDS011;67727;50.236;22.452;2023-03-23T04:16:36;8.50;;;6.70;;
78430;SDS011;67727;50.236;22.452;2023-03-23T04:19:03;11.50;;;7.30;;
78430;SDS011;67727;50.236;22.452;2023-03-23T04:21:30;9.10;;;6.30;;
78430;SDS011;67727;50.236;22.452;2023-03-23T04:23:59;10.80;;;6.60;;
78430;SDS011;67727;50.236;22.452;2023-03-23T04:26:27;10.60;;;6.20;;
78430;SDS011;67727;50.236;22.452;2023-03-23T04:28:57;8.60;;;6.60;;
78430;SDS011;67727;50.236;22.452;2023-03-23T04:31:25;8.00;;;5.40;;
78430;SDS011;67727;50.236;22.452;2023-03-23T04:33:52;7.80;;;5.90;;
78430;SDS011;67727;50.236;22.452;2023-03-23T04:36:19;9.90;;;6.50;;
78430;SDS011;67727;50.236;22.452;2023-03-23T04:38:48;9.80;;;6.30;;
78430;SDS011;67727;50.236;22.452;2023-03-23T04:41:17;10.20;;;6.70;;
78430;SDS011;67727;50.236;22.452;2023-03-23T04:43:44;8.20;;;6.40;;
78430;SDS011;67727;50.236;22.452;2023-03-23T04:46:13;9.50;;;6.60;;
78430;SDS011;67727;50.236;22.452;2023-03-23T04:48:44;8.00;;;6.10;;
78430;SDS011;67727;50.236;22.452;2023-03-23T04:51:11;11.50;;;8.40;;
78430;SDS011;67727;50.236;22.452;2023-03-23T04:53:41;15.60;;;9.90;;
78430;SDS011;67727;50.236;22.452;2023-03-23T04:56:07;10.10;;;7.40;;
78430;SDS011;67727;50.236;22.452;2023-03-23T04:58:34;10.70;;;7.00;;
78430;SDS011;67727;50.236;22.452;2023-03-23T05:01:01;11.10;;;6.90;;
78430;SDS011;67727;50.236;22.452;2023-03-23T05:03:28;10.40;;;7.20;;
78430;SDS011;67727;50.236;22.452;2023-03-23T05:05:55;9.50;;;6.10;;
78430;SDS011;67727;50.236;22.452;2023-03-23T05:08:22;10.00;;;6.50;;
78430;SDS011;67727;50.236;22.452;2023-03-23T05:10:54;12.50;;;7.50;;
78430;SDS011;67727;50.236;22.452;2023-03-23T05:13:23;9.10;;;6.70;;
78430;SDS011;67727;50.236;22.452;2023-03-23T05:15:51;9.60;;;6.30;;
78430;SDS011;67727;50.236;22.452;2023-03-23T05:18:18;10.00;;;5.40;;
78430;SDS011;67727;50.236;22.452;2023-03-23T05:20:46;7.80;;;5.70;;
78430;SDS011;67727;50.236;22.452;2023-03-23T05:23:15;7.80;;;5.80;;
78430;SDS011;67727;50.236;22.452;2023-03-23T05:25:42;11.20;;;5.80;;
78430;SDS011;67727;50.236;22.452;2023-03-23T05:28:09;8.70;;;6.10;;
78430;SDS011;67727;50.236;22.452;2023-03-23T05:30:38;9.80;;;6.80;;
78430;SDS011;67727;50.236;22.452;2023-03-23T05:33:05;7.70;;;5.60;;
78430;SDS011;67727;50.236;22.452;2023-03-23T05:35:32;10.10;;;6.90;;
78430;SDS011;67727;50.236;22.452;2023-03-23T05:37:59;10.00;;;5.70;;
78430;SDS011;67727;50.236;22.452;2023-03-23T05:40:28;12.80;;;7.60;;
78430;SDS011;67727;50.236;22.452;2023-03-23T05:42:55;10.00;;;5.50;;
78430;SDS011;67727;50.236;22.452;2023-03-23T05:45:25;8.30;;;5.80;;
78430;SDS011;67727;50.236;22.452;2023-03-23T05:47:52;11.40;;;5.90;;
78430;SDS011;67727;50.236;22.452;2023-03-23T05:50:19;9.10;;;5.90;;
78430;SDS011;67727;50.236;22.452;2023-03-23T05:52:46;8.10;;;5.90;;
78430;SDS011;67727;50.236;22.452;2023-03-23T05:55:13;8.70;;;5.80;;
78430;SDS011;67727;50.236;22.452;2023-03-23T05:57:41;10.30;;;6.20;;
78430;SDS011;67727;50.236;22.452;2023-03-23T06:00:08;10.20;;;5.60;;
78430;SDS011;67727;50.236;22.452;2023-03-23T06:02:42;9.10;;;5.90;;
78430;SDS011;67727;50.236;22.452;2023-03-23T06:05:10;6.40;;;4.80;;
78430;SDS011;67727;50.236;22.452;2023-03-23T06:07:37;9.50;;;6.60;;
78430;SDS011;67727;50.236;22.452;2023-03-23T06:10:07;10.30;;;6.40;;
78430;SDS011;67727;50.236;22.452;2023-03-23T06:12:36;8.60;;;6.20;;
78430;SDS011;67727;50.236;22.452;2023-03-23T06:15:06;11.10;;;6.70;;
78430;SDS011;67727;50.236;22.452;2023-03-23T06:17:34;10.50;;;6.80;;
78430;SDS011;67727;50.236;22.452;2023-03-23T06:20:03;12.80;;;6.80;;
78430;SDS011;67727;50.236;22.452;2023-03-23T06:22:36;8.70;;;6.00;;
78430;SDS011;67727;50.236;22.452;2023-03-23T06:25:06;12.20;;;7.30;;
78430;SDS011;67727;50.236;22.452;2023-03-23T06:27:33;13.40;;;7.80;;
78430;SDS011;67727;50.236;22.452;2023-03-23T06:30:02;11.00;;;6.20;;
78430;SDS011;67727;50.236;22.452;2023-03-23T06:32:30;11.10;;;6.70;;
78430;SDS011;67727;50.236;22.452;2023-03-23T06:34:59;8.50;;;6.00;;
78430;SDS011;67727;50.236;22.452;2023-03-23T06:37:26;8.90;;;6.70;;
78430;SDS011;67727;50.236;22.452;2023-03-23T06:39:53;9.60;;;6.10;;
78430;SDS011;67727;50.236;22.452;2023-03-23T06:42:22;10.40;;;5.90;;
78430;SDS011;67727;50.236;22.452;2023-03-23T06:44:52;8.10;;;6.70;;
78430;SDS011;67727;50.236;22.452;2023-03-23T06:47:23;11.20;;;5.90;;
78430;SDS011;67727;50.236;22.452;2023-03-23T06:49:50;7.60;;;5.10;;
78430;SDS011;67727;50.236;22.452;2023-03-23T06:52:20;9.60;;;6.10;;
78430;SDS011;67727;50.236;22.452;2023-03-23T06:54:49;11.00;;;5.60;;
78430;SDS011;67727;50.236;22.452;2023-03-23T06:57:17;8.40;;;6.10;;
78430;SDS011;67727;50.236;22.452;2023-03-23T06:59:44;9.50;;;5.90;;
78430;SDS011;67727;50.236;22.452;2023-03-23T07:02:12;8.40;;;5.60;;
78430;SDS011;67727;50.236;22.452;2023-03-23T07:04:40;7.00;;;5.80;;
78430;SDS011;67727;50.236;22.452;2023-03-23T07:07:08;9.00;;;5.10;;
78430;SDS011;67727;50.236;22.452;2023-03-23T07:09:37;9.50;;;5.80;;
78430;SDS011;67727;50.236;22.452;2023-03-23T07:12:04;9.90;;;5.90;;
78430;SDS011;67727;50.236;22.452;2023-03-23T07:14:32;8.20;;;5.60;;
78430;SDS011;67727;50.236;22.452;2023-03-23T07:16:59;8.80;;;5.60;;
78430;SDS011;67727;50.236;22.452;2023-03-23T07:19:27;8.20;;;5.90;;
78430;SDS011;67727;50.236;22.452;2023-03-23T07:21:53;7.40;;;5.60;;
78430;SDS011;67727;50.236;22.452;2023-03-23T07:24:20;8.00;;;6.10;;
78430;SDS011;67727;50.236;22.452;2023-03-23T07:26:47;11.40;;;6.20;;
78430;SDS011;67727;50.236;22.452;2023-03-23T07:29:16;9.50;;;6.00;;
78430;SDS011;67727;50.236;22.452;2023-03-23T07:31:43;8.30;;;5.80;;
78430;SDS011;67727;50.236;22.452;2023-03-23T07:34:10;15.40;;;6.50;;
78430;SDS011;67727;50.236;22.452;2023-03-23T07:36:37;8.70;;;5.70;;
78430;SDS011;67727;50.236;22.452;2023-03-23T07:39:04;9.70;;;6.30;;
78430;SDS011;67727;50.236;22.452;2023-03-23T07:41:34;8.10;;;5.40;;
78430;SDS011;67727;50.236;22.452;2023-03-23T07:44:01;9.20;;;5.40;;
78430;SDS011;67727;50.236;22.452;2023-03-23T07:46:28;7.80;;;5.40;;
78430;SDS011;67727;50.236;22.452;2023-03-23T07:48:55;9.10;;;5.10;;
78430;SDS011;67727;50.236;22.452;2023-03-23T07:51:22;6.50;;;5.20;;
78430;SDS011;67727;50.236;22.452;2023-03-23T07:53:50;8.50;;;5.30;;
78430;SDS011;67727;50.236;22.452;2023-03-23T07:58:46;7.80;;;4.90;;
78430;SDS011;67727;50.236;22.452;2023-03-23T08:01:13;7.20;;;5.50;;
78430;SDS011;67727;50.236;22.452;2023-03-23T08:03:40;7.40;;;5.70;;
78430;SDS011;67727;50.236;22.452;2023-03-23T08:06:07;8.70;;;5.30;;
78430;SDS011;67727;50.236;22.452;2023-03-23T08:08:36;7.80;;;5.10;;
78430;SDS011;67727;50.236;22.452;2023-03-23T08:13:30;8.00;;;5.20;;
78430;SDS011;67727;50.236;22.452;2023-03-23T08:15:57;6.80;;;4.60;;
78430;SDS011;67727;50.236;22.452;2023-03-23T08:18:24;6.00;;;4.90;;
78430;SDS011;67727;50.236;22.452;2023-03-23T08:20:51;7.40;;;4.70;;
78430;SDS011;67727;50.236;22.452;2023-03-23T08:23:19;10.50;;;4.90;;
78430;SDS011;67727;50.236;22.452;2023-03-23T08:25:50;5.80;;;4.20;;
78430;SDS011;67727;50.236;22.452;2023-03-23T08:28:17;6.70;;;5.20;;
78430;SDS011;67727;50.236;22.452;2023-03-23T08:30:43;8.70;;;5.10;;
78430;SDS011;67727;50.236;22.452;2023-03-23T08:33:10;10.70;;;5.20;;
78430;SDS011;67727;50.236;22.452;2023-03-23T08:35:38;5.90;;;4.80;;
78430;SDS011;67727;50.236;22.452;2023-03-23T08:38:07;5.50;;;4.20;;
78430;SDS011;67727;50.236;22.452;2023-03-23T08:40:34;5.30;;;4.20;;
78430;SDS011;67727;50.236;22.452;2023-03-23T08:43:01;5.40;;;4.50;;
78430;SDS011;67727;50.236;22.452;2023-03-23T08:45:28;9.20;;;4.70;;
78430;SDS011;67727;50.236;22.452;2023-03-23T08:47:54;6.40;;;4.30;;
78430;SDS011;67727;50.236;22.452;2023-03-23T08:50:24;10.50;;;4.70;;
78430;SDS011;67727;50.236;22.452;2023-03-23T08:52:54;5.90;;;4.60;;
78430;SDS011;67727;50.236;22.452;2023-03-23T08:55:21;6.00;;;4.30;;
78430;SDS011;67727;50.236;22.452;2023-03-23T08:57:48;6.60;;;4.20;;
78430;SDS011;67727;50.236;22.452;2023-03-23T09:00:19;6.90;;;4.80;;
78430;SDS011;67727;50.236;22.452;2023-03-23T09:02:51;7.30;;;4.90;;
78430;SDS011;67727;50.236;22.452;2023-03-23T09:05:20;12.00;;;4.50;;
78430;SDS011;67727;50.236;22.452;2023-03-23T09:07:52;8.00;;;4.20;;
78430;SDS011;67727;50.236;22.452;2023-03-23T09:10:20;6.80;;;4.60;;
78430;SDS011;67727;50.236;22.452;2023-03-23T09:12:48;6.20;;;4.40;;
78430;SDS011;67727;50.236;22.452;2023-03-23T09:15:16;8.30;;;4.80;;
78430;SDS011;67727;50.236;22.452;2023-03-23T09:17:45;6.00;;;4.60;;
78430;SDS011;67727;50.236;22.452;2023-03-23T09:20:14;5.90;;;4.30;;
78430;SDS011;67727;50.236;22.452;2023-03-23T09:22:47;7.80;;;4.70;;
78430;SDS011;67727;50.236;22.452;2023-03-23T09:25:19;7.90;;;4.30;;
78430;SDS011;67727;50.236;22.452;2023-03-23T09:27:48;7.30;;;4.30;;
78430;SDS011;67727;50.236;22.452;2023-03-23T09:30:29;5.60;;;4.20;;
78430;SDS011;67727;50.236;22.452;2023-03-23T09:32:59;6.50;;;4.20;;
78430;SDS011;67727;50.236;22.452;2023-03-23T09:35:27;6.40;;;4.60;;
78430;SDS011;67727;50.236;22.452;2023-03-23T09:37:55;7.60;;;3.90;;
78430;SDS011;67727;50.236;22.452;2023-03-23T09:40:23;6.40;;;4.30;;
78430;SDS011;67727;50.236;22.452;2023-03-23T09:53:51;6.80;;;4.20;;
78430;SDS011;67727;50.236;22.452;2023-03-23T09:56:29;5.40;;;4.10;;
78430;SDS011;67727;50.236;22.452;2023-03-23T09:59:17;7.60;;;4.20;;
78430;SDS011;67727;50.236;22.452;2023-03-23T10:01:49;6.60;;;4.50;;
78430;SDS011;67727;50.236;22.452;2023-03-23T10:04:34;5.00;;;3.60;;
78430;SDS011;67727;50.236;22.452;2023-03-23T10:07:15;5.90;;;3.60;;
78430;SDS011;67727;50.236;22.452;2023-03-23T10:09:51;7.30;;;4.50;;
78430;SDS011;67727;50.236;22.452;2023-03-23T10:25:43;5.40;;;4.20;;
78430;SDS011;67727;50.236;22.452;2023-03-23T10:28:19;6.90;;;4.00;;
78430;SDS011;67727;50.236;22.452;2023-03-23T10:31:05;5.90;;;4.20;;
78430;SDS011;67727;50.236;22.452;2023-03-23T10:38:40;7.30;;;3.80;;
78430;SDS011;67727;50.236;22.452;2023-03-23T10:41:17;5.10;;;3.90;;
78430;SDS011;67727;50.236;22.452;2023-03-23T10:43:45;5.20;;;3.90;;
78430;SDS011;67727;50.236;22.452;2023-03-23T10:49:02;7.30;;;4.40;;
78430;SDS011;67727;50.236;22.452;2023-03-23T10:51:34;6.10;;;4.00;;
78430;SDS011;67727;50.236;22.452;2023-03-23T10:54:06;8.80;;;4.10;;
78430;SDS011;67727;50.236;22.452;2023-03-23T10:56:35;5.80;;;3.80;;
78430;SDS011;67727;50.236;22.452;2023-03-23T10:59:19;6.40;;;4.10;;
78430;SDS011;67727;50.236;22.452;2023-03-23T11:01:49;5.50;;;4.10;;
78430;SDS011;67727;50.236;22.452;2023-03-23T11:04:18;5.70;;;3.80;;
78430;SDS011;67727;50.236;22.452;2023-03-23T11:06:46;5.70;;;4.20;;
78430;SDS011;67727;50.236;22.452;2023-03-23T11:09:18;5.00;;;4.20;;
78430;SDS011;67727;50.236;22.452;2023-03-23T11:11:53;6.70;;;4.50;;
78430;SDS011;67727;50.236;22.452;2023-03-23T11:14:26;9.20;;;4.40;;
78430;SDS011;67727;50.236;22.452;2023-03-23T11:17:01;5.00;;;3.50;;
78430;SDS011;67727;50.236;22.452;2023-03-23T11:19:31;6.50;;;4.30;;
78430;SDS011;67727;50.236;22.452;2023-03-23T11:22:06;6.40;;;4.20;;
78430;SDS011;67727;50.236;22.452;2023-03-23T11:24:40;6.50;;;4.00;;
78430;SDS011;67727;50.236;22.452;2023-03-23T11:27:09;6.80;;;4.30;;
78430;SDS011;67727;50.236;22.452;2023-03-23T11:29:43;7.40;;;4.20;;
78430;SDS011;67727;50.236;22.452;2023-03-23T11:32:31;7.00;;;4.10;;
78430;SDS011;67727;50.236;22.452;2023-03-23T11:34:59;6.20;;;4.20;;
78430;SDS011;67727;50.236;22.452;2023-03-23T11:37:29;6.30;;;4.20;;
78430;SDS011;67727;50.236;22.452;2023-03-23T11:42:41;4.70;;;3.70;;
78430;SDS011;67727;50.236;22.452;2023-03-23T11:50:51;6.50;;;4.30;;
78430;SDS011;67727;50.236;22.452;2023-03-23T11:56:50;6.40;;;4.50;;
78430;SDS011;67727;50.236;22.452;2023-03-23T11:59:19;5.50;;;4.00;;
78430;SDS011;67727;50.236;22.452;2023-03-23T12:01:55;5.60;;;4.20;;
78430;SDS011;67727;50.236;22.452;2023-03-23T12:04:35;7.50;;;4.20;;
78430;SDS011;67727;50.236;22.452;2023-03-23T12:34:25;7.20;;;4.40;;
78430;SDS011;67727;50.236;22.452;2023-03-23T12:36:57;16.00;;;4.80;;
78430;SDS011;67727;50.236;22.452;2023-03-23T12:42:54;7.00;;;4.40;;
78430;SDS011;67727;50.236;22.452;2023-03-23T12:46:32;6.20;;;4.10;;
78430;SDS011;67727;50.236;22.452;2023-03-23T12:48:49;8.80;;;4.40;;
78430;SDS011;67727;50.236;22.452;2023-03-23T12:56:33;6.30;;;4.50;;
78430;SDS011;67727;50.236;22.452;2023-03-23T13:01:57;6.10;;;4.40;;
78430;SDS011;67727;50.236;22.452;2023-03-23T13:04:35;6.00;;;4.70;;
78430;SDS011;67727;50.236;22.452;2023-03-23T13:07:06;7.30;;;4.50;;
78430;SDS011;67727;50.236;22.452;2023-03-23T13:12:32;6.40;;;4.00;;
78430;SDS011;67727;50.236;22.452;2023-03-23T13:15:04;5.40;;;4.00;;
78430;SDS011;67727;50.236;22.452;2023-03-23T13:28:27;6.00;;;4.30;;
78430;SDS011;67727;50.236;22.452;2023-03-23T13:31:04;6.60;;;4.10;;
78430;SDS011;67727;50.236;22.452;2023-03-23T13:33:50;6.50;;;4.30;;
78430;SDS011;67727;50.236;22.452;2023-03-23T13:36:31;5.60;;;4.10;;
78430;SDS011;67727;50.236;22.452;2023-03-23T13:39:04;6.80;;;4.40;;
78430;SDS011;67727;50.236;22.452;2023-03-23T13:41:34;10.70;;;4.60;;
78430;SDS011;67727;50.236;22.452;2023-03-23T13:44:16;5.90;;;4.20;;
78430;SDS011;67727;50.236;22.452;2023-03-23T13:47:03;5.80;;;3.60;;
78430;SDS011;67727;50.236;22.452;2023-03-23T13:50:09;6.80;;;3.90;;
78430;SDS011;67727;50.236;22.452;2023-03-23T14:00:44;7.20;;;4.30;;
78430;SDS011;67727;50.236;22.452;2023-03-23T14:06:01;7.50;;;4.80;;
78430;SDS011;67727;50.236;22.452;2023-03-23T14:11:00;7.10;;;4.60;;
78430;SDS011;67727;50.236;22.452;2023-03-23T14:13:45;10.00;;;4.60;;
78430;SDS011;67727;50.236;22.452;2023-03-23T14:16:15;6.40;;;4.10;;
78430;SDS011;67727;50.236;22.452;2023-03-23T14:18:55;5.30;;;3.90;;
78430;SDS011;67727;50.236;22.452;2023-03-23T14:21:39;8.00;;;4.40;;
78430;SDS011;67727;50.236;22.452;2023-03-23T14:24:12;9.90;;;4.70;;
78430;SDS011;67727;50.236;22.452;2023-03-23T14:26:44;6.50;;;4.60;;
78430;SDS011;67727;50.236;22.452;2023-03-23T14:29:12;7.80;;;4.80;;
78430;SDS011;67727;50.236;22.452;2023-03-23T14:31:40;6.50;;;4.30;;
78430;SDS011;67727;50.236;22.452;2023-03-23T14:34:14;6.40;;;4.70;;
78430;SDS011;67727;50.236;22.452;2023-03-23T14:36:44;5.60;;;4.30;;
78430;SDS011;67727;50.236;22.452;2023-03-23T14:39:15;5.90;;;3.80;;
78430;SDS011;67727;50.236;22.452;2023-03-23T14:41:48;8.30;;;4.50;;
78430;SDS011;67727;50.236;22.452;2023-03-23T14:44:19;6.00;;;4.40;;
78430;SDS011;67727;50.236;22.452;2023-03-23T14:46:49;6.90;;;4.50;;
78430;SDS011;67727;50.236;22.452;2023-03-23T14:49:17;5.10;;;3.90;;
78430;SDS011;67727;50.236;22.452;2023-03-23T14:51:52;6.90;;;4.80;;
78430;SDS011;67727;50.236;22.452;2023-03-23T14:54:24;5.80;;;4.30;;
78430;SDS011;67727;50.236;22.452;2023-03-23T14:56:53;6.90;;;4.30;;
78430;SDS011;67727;50.236;22.452;2023-03-23T14:59:21;6.70;;;5.10;;
78430;SDS011;67727;50.236;22.452;2023-03-23T15:01:49;6.30;;;4.80;;
78430;SDS011;67727;50.236;22.452;2023-03-23T15:04:21;7.80;;;4.60;;
78430;SDS011;67727;50.236;22.452;2023-03-23T15:06:54;6.30;;;4.70;;
78430;SDS011;67727;50.236;22.452;2023-03-23T15:09:23;10.50;;;5.50;;
78430;SDS011;67727;50.236;22.452;2023-03-23T15:11:51;14.40;;;5.50;;
78430;SDS011;67727;50.236;22.452;2023-03-23T15:14:23;6.90;;;4.40;;
78430;SDS011;67727;50.236;22.452;2023-03-23T15:16:55;8.40;;;4.80;;
78430;SDS011;67727;50.236;22.452;2023-03-23T15:19:32;7.50;;;4.60;;
78430;SDS011;67727;50.236;22.452;2023-03-23T15:22:06;12.30;;;5.00;;
78430;SDS011;67727;50.236;22.452;2023-03-23T15:24:41;11.70;;;5.00;;
78430;SDS011;67727;50.236;22.452;2023-03-23T15:32:44;10.80;;;7.40;;
78430;SDS011;67727;50.236;22.452;2023-03-23T15:35:22;22.80;;;10.90;;
78430;SDS011;67727;50.236;22.452;2023-03-23T15:37:52;9.50;;;6.10;;
78430;SDS011;67727;50.236;22.452;2023-03-23T15:40:24;14.20;;;8.40;;
78430;SDS011;67727;50.236;22.452;2023-03-23T15:46:19;14.20;;;7.40;;
78430;SDS011;67727;50.236;22.452;2023-03-23T15:51:18;11.00;;;5.90;;
78430;SDS011;67727;50.236;22.452;2023-03-23T15:53:47;11.70;;;6.10;;
78430;SDS011;67727;50.236;22.452;2023-03-23T15:56:16;10.60;;;5.70;;
78430;SDS011;67727;50.236;22.452;2023-03-23T15:58:44;13.60;;;6.80;;
78430;SDS011;67727;50.236;22.452;2023-03-23T16:01:12;14.10;;;8.70;;
78430;SDS011;67727;50.236;22.452;2023-03-23T16:03:45;12.20;;;8.00;;
78430;SDS011;67727;50.236;22.452;2023-03-23T16:06:23;8.10;;;6.20;;
78430;SDS011;67727;50.236;22.452;2023-03-23T16:08:53;9.30;;;5.60;;
78430;SDS011;67727;50.236;22.452;2023-03-23T16:11:20;10.80;;;5.90;;
78430;SDS011;67727;50.236;22.452;2023-03-23T16:13:48;11.10;;;6.00;;
78430;SDS011;67727;50.236;22.452;2023-03-23T16:16:20;8.60;;;5.70;;
78430;SDS011;67727;50.236;22.452;2023-03-23T16:18:49;10.80;;;6.60;;
78430;SDS011;67727;50.236;22.452;2023-03-23T16:21:16;11.90;;;7.60;;
78430;SDS011;67727;50.236;22.452;2023-03-23T16:23:43;10.60;;;6.60;;
78430;SDS011;67727;50.236;22.452;2023-03-23T16:26:12;11.10;;;6.60;;
78430;SDS011;67727;50.236;22.452;2023-03-23T16:28:40;14.10;;;7.50;;
78430;SDS011;67727;50.236;22.452;2023-03-23T16:31:08;13.40;;;7.50;;
78430;SDS011;67727;50.236;22.452;2023-03-23T16:33:36;13.00;;;8.00;;
78430;SDS011;67727;50.236;22.452;2023-03-23T16:36:03;11.00;;;7.10;;
78430;SDS011;67727;50.236;22.452;2023-03-23T16:38:30;11.40;;;7.30;;
78430;SDS011;67727;50.236;22.452;2023-03-23T16:40:57;12.00;;;6.50;;
78430;SDS011;67727;50.236;22.452;2023-03-23T16:43:24;13.60;;;8.00;;
78430;SDS011;67727;50.236;22.452;2023-03-23T16:45:50;14.50;;;7.10;;
78430;SDS011;67727;50.236;22.452;2023-03-23T16:48:21;17.20;;;10.70;;
78430;SDS011;67727;50.236;22.452;2023-03-23T16:50:52;27.00;;;16.80;;
78430;SDS011;67727;50.236;22.452;2023-03-23T16:53:20;33.30;;;18.90;;
78430;SDS011;67727;50.236;22.452;2023-03-23T16:55:49;31.10;;;18.20;;
78430;SDS011;67727;50.236;22.452;2023-03-23T16:58:17;29.90;;;15.60;;
78430;SDS011;67727;50.236;22.452;2023-03-23T17:00:46;23.10;;;11.40;;
78430;SDS011;67727;50.236;22.452;2023-03-23T17:03:19;24.30;;;11.50;;
78430;SDS011;67727;50.236;22.452;2023-03-23T17:05:47;27.30;;;14.30;;
78430;SDS011;67727;50.236;22.452;2023-03-23T17:08:16;36.10;;;18.60;;
78430;SDS011;67727;50.236;22.452;2023-03-23T17:10:44;24.80;;;12.00;;
78430;SDS011;67727;50.236;22.452;2023-03-23T17:13:13;19.70;;;10.90;;